Freeburg, Missouri
Current Conditions -  °F | °C
As of 4:53 AM on Friday 24 Oct 2014 (Local Time) from KVIH Reporting Station
Clear Clear  
Wind Chill:   Ceiling: Unl
Heat Index:   Visibility: 8mi
Dew Point:   Wind: 7mph
Humidity: 93%   Direction: 230°SW
Pressure: 30.09"   Gusts: NA
Location:  38.32°N, 91.92°W
Report Text: KVIH 240953Z AUTO 23006KT 8SM CLR 09/08 A3009 RMK AO2 SLP189 T00890078
Loading
Personal Weather Stations






























Interactive Weather Map
Tropical Storm Tracking
New forecast layout! Learn more

10-Day Weather Forecast

Advertisements
Track Severe Weather on mobile